Terminal Aerodrome Forecast
Issued by NWS

Home | Current Version | Previous Version | Text Only | Print | Product List | Glossary On
Versions: 1 2 3 4 5 6 7 8 9 10 11 12
000
FTAK31 PAJN 032335
TAFASI
TAF
PASI 032335Z 0400/0424 23008KT P6SM FEW250
     FM040400 VRB03KT P6SM BKN220
     FM041100 11005KT P6SM OVC100
     FM041800 12010KT P6SM -RA SCT020 OVC050=

USA.gov is the U.S. government's official web portal to all federal, state and local government web resources and services.